Terminal Aerodrome Forecast
Issued by NWS

Home | Current Version | Previous Version | Text Only | Print | Product List | Glossary On
Versions: 1 2 3 4 5 6 7 8 9 10 11 12 13 14 15 16 17 18 19 20 21 22 23 24 25 26 27
000
FTUS45 KBOU 250001 AAA
TAFAPA
TAF AMD
KAPA 250001Z 2500/2524 14012KT P6SM SCT080 BKN120
     FM250400 36011KT P6SM VCSH FEW060 BKN080 BKN120
     FM251000 25006KT P6SM SCT080 BKN220
     FM251700 34010KT P6SM SCT080 BKN140
     FM252100 36015KT P6SM -SHRA BKN060=

USA.gov is the U.S. government's official web portal to all federal, state and local government web resources and services.